sensor_id;sensor_type;location;lat;lon;timestamp;P1;durP1;ratioP1;P2;durP2;ratioP2
49217;SDS011;35045;51.194;7.268;2023-06-14T00:00:59;10.32;;;5.55;;
49217;SDS011;35045;51.194;7.268;2023-06-14T00:03:25;9.40;;;5.43;;
49217;SDS011;35045;51.194;7.268;2023-06-14T00:05:52;8.10;;;4.80;;
49217;SDS011;35045;51.194;7.268;2023-06-14T00:08:18;7.85;;;5.30;;
49217;SDS011;35045;51.194;7.268;2023-06-14T00:10:44;10.05;;;5.95;;
49217;SDS011;35045;51.194;7.268;2023-06-14T00:13:11;10.23;;;5.50;;
49217;SDS011;35045;51.194;7.268;2023-06-14T00:15:37;8.85;;;5.47;;
49217;SDS011;35045;51.194;7.268;2023-06-14T00:18:04;8.20;;;5.20;;
49217;SDS011;35045;51.194;7.268;2023-06-14T00:20:31;8.57;;;5.45;;
49217;SDS011;35045;51.194;7.268;2023-06-14T00:22:59;7.40;;;4.95;;
49217;SDS011;35045;51.194;7.268;2023-06-14T00:25:25;9.52;;;5.32;;
49217;SDS011;35045;51.194;7.268;2023-06-14T00:27:53;8.35;;;5.22;;
49217;SDS011;35045;51.194;7.268;2023-06-14T00:30:21;9.40;;;5.45;;
49217;SDS011;35045;51.194;7.268;2023-06-14T00:32:47;8.25;;;5.57;;
49217;SDS011;35045;51.194;7.268;2023-06-14T00:35:14;7.93;;;5.22;;
49217;SDS011;35045;51.194;7.268;2023-06-14T00:37:40;9.35;;;5.13;;
49217;SDS011;35045;51.194;7.268;2023-06-14T00:40:07;8.63;;;5.60;;
49217;SDS011;35045;51.194;7.268;2023-06-14T00:42:33;7.93;;;5.00;;
49217;SDS011;35045;51.194;7.268;2023-06-14T00:45:00;9.55;;;5.38;;
49217;SDS011;35045;51.194;7.268;2023-06-14T00:47:26;10.05;;;5.65;;
49217;SDS011;35045;51.194;7.268;2023-06-14T00:49:53;10.80;;;5.28;;
49217;SDS011;35045;51.194;7.268;2023-06-14T00:52:22;8.90;;;5.28;;
49217;SDS011;35045;51.194;7.268;2023-06-14T00:54:49;8.63;;;5.40;;
49217;SDS011;35045;51.194;7.268;2023-06-14T00:57:16;8.27;;;5.47;;
49217;SDS011;35045;51.194;7.268;2023-06-14T01:02:09;11.15;;;5.75;;
49217;SDS011;35045;51.194;7.268;2023-06-14T01:04:36;10.23;;;5.80;;
49217;SDS011;35045;51.194;7.268;2023-06-14T01:07:09;10.88;;;5.13;;
49217;SDS011;35045;51.194;7.268;2023-06-14T01:09:52;8.93;;;5.20;;
49217;SDS011;35045;51.194;7.268;2023-06-14T01:15:31;8.25;;;5.10;;
49217;SDS011;35045;51.194;7.268;2023-06-14T01:17:58;7.85;;;5.05;;
49217;SDS011;35045;51.194;7.268;2023-06-14T01:20:29;9.23;;;5.45;;
49217;SDS011;35045;51.194;7.268;2023-06-14T01:22:58;9.25;;;5.13;;
49217;SDS011;35045;51.194;7.268;2023-06-14T01:25:25;8.10;;;5.05;;
49217;SDS011;35045;51.194;7.268;2023-06-14T01:30:24;9.30;;;4.88;;
49217;SDS011;35045;51.194;7.268;2023-06-14T01:32:51;10.23;;;5.20;;
49217;SDS011;35045;51.194;7.268;2023-06-14T01:35:18;7.63;;;4.30;;
49217;SDS011;35045;51.194;7.268;2023-06-14T01:37:46;7.40;;;4.43;;
49217;SDS011;35045;51.194;7.268;2023-06-14T01:40:14;12.88;;;4.38;;
49217;SDS011;35045;51.194;7.268;2023-06-14T01:42:42;7.47;;;4.68;;
49217;SDS011;35045;51.194;7.268;2023-06-14T01:45:10;8.35;;;4.60;;
49217;SDS011;35045;51.194;7.268;2023-06-14T01:47:37;8.45;;;4.45;;
49217;SDS011;35045;51.194;7.268;2023-06-14T01:50:03;8.10;;;4.43;;
49217;SDS011;35045;51.194;7.268;2023-06-14T01:52:30;9.57;;;5.07;;
49217;SDS011;35045;51.194;7.268;2023-06-14T01:54:56;9.73;;;4.38;;
49217;SDS011;35045;51.194;7.268;2023-06-14T01:57:23;7.88;;;4.25;;
49217;SDS011;35045;51.194;7.268;2023-06-14T01:59:52;8.73;;;4.38;;
49217;SDS011;35045;51.194;7.268;2023-06-14T02:02:18;7.45;;;4.13;;
49217;SDS011;35045;51.194;7.268;2023-06-14T02:04:44;9.18;;;4.82;;
49217;SDS011;35045;51.194;7.268;2023-06-14T02:07:13;9.07;;;4.15;;
49217;SDS011;35045;51.194;7.268;2023-06-14T02:09:40;7.68;;;4.60;;
49217;SDS011;35045;51.194;7.268;2023-06-14T02:12:07;9.00;;;4.90;;
49217;SDS011;35045;51.194;7.268;2023-06-14T02:14:34;7.97;;;3.92;;
49217;SDS011;35045;51.194;7.268;2023-06-14T02:17:00;8.85;;;4.10;;
49217;SDS011;35045;51.194;7.268;2023-06-14T02:19:26;6.75;;;3.80;;
49217;SDS011;35045;51.194;7.268;2023-06-14T02:21:53;8.45;;;4.50;;
49217;SDS011;35045;51.194;7.268;2023-06-14T02:24:19;6.55;;;4.00;;
49217;SDS011;35045;51.194;7.268;2023-06-14T02:26:45;8.95;;;4.43;;
49217;SDS011;35045;51.194;7.268;2023-06-14T02:29:11;7.75;;;4.00;;
49217;SDS011;35045;51.194;7.268;2023-06-14T02:31:38;9.48;;;4.70;;
49217;SDS011;35045;51.194;7.268;2023-06-14T02:34:04;6.18;;;3.72;;
49217;SDS011;35045;51.194;7.268;2023-06-14T02:36:31;7.40;;;4.22;;
49217;SDS011;35045;51.194;7.268;2023-06-14T02:38:57;8.68;;;4.30;;
49217;SDS011;35045;51.194;7.268;2023-06-14T02:41:23;6.65;;;4.10;;
49217;SDS011;35045;51.194;7.268;2023-06-14T02:43:50;7.82;;;3.85;;
49217;SDS011;35045;51.194;7.268;2023-06-14T02:46:16;8.50;;;4.35;;
49217;SDS011;35045;51.194;7.268;2023-06-14T02:48:42;7.43;;;3.67;;
49217;SDS011;35045;51.194;7.268;2023-06-14T02:51:09;7.72;;;3.80;;
49217;SDS011;35045;51.194;7.268;2023-06-14T02:53:35;7.45;;;4.00;;
49217;SDS011;35045;51.194;7.268;2023-06-14T02:56:02;7.88;;;3.75;;
49217;SDS011;35045;51.194;7.268;2023-06-14T02:58:29;7.40;;;4.20;;
49217;SDS011;35045;51.194;7.268;2023-06-14T03:00:56;8.93;;;4.20;;
49217;SDS011;35045;51.194;7.268;2023-06-14T03:03:22;7.10;;;4.15;;
49217;SDS011;35045;51.194;7.268;2023-06-14T03:05:50;7.50;;;4.20;;
49217;SDS011;35045;51.194;7.268;2023-06-14T03:08:17;6.13;;;3.80;;
49217;SDS011;35045;51.194;7.268;2023-06-14T03:10:47;8.52;;;4.35;;
49217;SDS011;35045;51.194;7.268;2023-06-14T03:13:15;7.78;;;3.78;;
49217;SDS011;35045;51.194;7.268;2023-06-14T03:15:47;7.85;;;4.00;;
49217;SDS011;35045;51.194;7.268;2023-06-14T03:18:15;6.65;;;3.65;;
49217;SDS011;35045;51.194;7.268;2023-06-14T03:20:42;6.97;;;3.90;;
49217;SDS011;35045;51.194;7.268;2023-06-14T03:23:11;7.55;;;4.00;;
49217;SDS011;35045;51.194;7.268;2023-06-14T03:25:37;7.40;;;4.28;;
49217;SDS011;35045;51.194;7.268;2023-06-14T03:28:04;8.95;;;4.03;;
49217;SDS011;35045;51.194;7.268;2023-06-14T03:30:31;7.68;;;4.18;;
49217;SDS011;35045;51.194;7.268;2023-06-14T03:32:57;7.78;;;4.05;;
49217;SDS011;35045;51.194;7.268;2023-06-14T03:35:28;6.82;;;3.42;;
49217;SDS011;35045;51.194;7.268;2023-06-14T03:37:54;8.55;;;3.72;;
49217;SDS011;35045;51.194;7.268;2023-06-14T03:40:22;7.72;;;3.30;;
49217;SDS011;35045;51.194;7.268;2023-06-14T03:42:51;7.13;;;3.47;;
49217;SDS011;35045;51.194;7.268;2023-06-14T03:45:17;8.38;;;3.83;;
49217;SDS011;35045;51.194;7.268;2023-06-14T03:47:43;9.18;;;4.10;;
49217;SDS011;35045;51.194;7.268;2023-06-14T03:50:10;8.52;;;3.70;;
49217;SDS011;35045;51.194;7.268;2023-06-14T03:52:36;7.88;;;4.30;;
49217;SDS011;35045;51.194;7.268;2023-06-14T03:55:03;8.60;;;4.28;;
49217;SDS011;35045;51.194;7.268;2023-06-14T03:57:33;7.28;;;3.85;;
49217;SDS011;35045;51.194;7.268;2023-06-14T03:59:59;7.82;;;4.40;;
49217;SDS011;35045;51.194;7.268;2023-06-14T04:02:25;7.15;;;4.05;;
49217;SDS011;35045;51.194;7.268;2023-06-14T04:04:54;7.75;;;4.03;;
49217;SDS011;35045;51.194;7.268;2023-06-14T04:07:20;7.68;;;4.05;;
49217;SDS011;35045;51.194;7.268;2023-06-14T04:09:47;8.43;;;3.85;;
49217;SDS011;35045;51.194;7.268;2023-06-14T04:12:13;8.40;;;4.63;;
49217;SDS011;35045;51.194;7.268;2023-06-14T04:14:40;8.07;;;4.05;;
49217;SDS011;35045;51.194;7.268;2023-06-14T04:17:06;6.60;;;4.03;;
49217;SDS011;35045;51.194;7.268;2023-06-14T04:19:33;7.97;;;4.88;;
49217;SDS011;35045;51.194;7.268;2023-06-14T04:21:59;8.85;;;4.20;;
49217;SDS011;35045;51.194;7.268;2023-06-14T04:24:28;9.27;;;3.67;;
49217;SDS011;35045;51.194;7.268;2023-06-14T04:26:58;8.05;;;4.07;;
49217;SDS011;35045;51.194;7.268;2023-06-14T04:29:25;6.80;;;4.00;;
49217;SDS011;35045;51.194;7.268;2023-06-14T04:31:53;12.02;;;3.92;;
49217;SDS011;35045;51.194;7.268;2023-06-14T04:34:21;7.47;;;4.28;;
49217;SDS011;35045;51.194;7.268;2023-06-14T04:36:47;7.07;;;3.67;;
49217;SDS011;35045;51.194;7.268;2023-06-14T04:39:19;6.93;;;3.95;;
49217;SDS011;35045;51.194;7.268;2023-06-14T04:41:46;7.68;;;3.83;;
49217;SDS011;35045;51.194;7.268;2023-06-14T04:44:12;7.90;;;3.97;;
49217;SDS011;35045;51.194;7.268;2023-06-14T04:46:39;8.02;;;3.50;;
49217;SDS011;35045;51.194;7.268;2023-06-14T04:49:15;7.32;;;4.03;;
49217;SDS011;35045;51.194;7.268;2023-06-14T04:51:43;7.13;;;4.10;;
49217;SDS011;35045;51.194;7.268;2023-06-14T04:54:10;6.90;;;3.90;;
49217;SDS011;35045;51.194;7.268;2023-06-14T04:56:39;8.43;;;3.80;;
49217;SDS011;35045;51.194;7.268;2023-06-14T04:59:06;6.20;;;3.45;;
49217;SDS011;35045;51.194;7.268;2023-06-14T05:01:34;8.90;;;4.07;;
49217;SDS011;35045;51.194;7.268;2023-06-14T05:04:00;6.70;;;3.50;;
49217;SDS011;35045;51.194;7.268;2023-06-14T05:06:26;7.18;;;3.88;;
49217;SDS011;35045;51.194;7.268;2023-06-14T05:08:54;10.13;;;4.18;;
49217;SDS011;35045;51.194;7.268;2023-06-14T05:11:20;7.60;;;3.95;;
49217;SDS011;35045;51.194;7.268;2023-06-14T05:13:49;7.28;;;3.88;;
49217;SDS011;35045;51.194;7.268;2023-06-14T05:16:17;6.22;;;3.85;;
49217;SDS011;35045;51.194;7.268;2023-06-14T05:18:45;8.90;;;3.75;;
49217;SDS011;35045;51.194;7.268;2023-06-14T05:21:13;7.18;;;3.80;;
49217;SDS011;35045;51.194;7.268;2023-06-14T05:23:43;9.07;;;4.05;;
49217;SDS011;35045;51.194;7.268;2023-06-14T05:26:10;8.38;;;3.53;;
49217;SDS011;35045;51.194;7.268;2023-06-14T05:28:36;8.80;;;3.58;;
49217;SDS011;35045;51.194;7.268;2023-06-14T05:31:03;8.70;;;3.75;;
49217;SDS011;35045;51.194;7.268;2023-06-14T05:33:29;7.78;;;3.60;;
49217;SDS011;35045;51.194;7.268;2023-06-14T05:35:55;7.43;;;3.92;;
49217;SDS011;35045;51.194;7.268;2023-06-14T05:38:21;10.45;;;4.40;;
49217;SDS011;35045;51.194;7.268;2023-06-14T05:40:48;7.28;;;3.67;;
49217;SDS011;35045;51.194;7.268;2023-06-14T05:43:14;7.93;;;3.60;;
49217;SDS011;35045;51.194;7.268;2023-06-14T05:45:40;8.32;;;3.42;;
49217;SDS011;35045;51.194;7.268;2023-06-14T05:48:06;8.27;;;3.55;;
49217;SDS011;35045;51.194;7.268;2023-06-14T05:50:32;10.55;;;3.80;;
49217;SDS011;35045;51.194;7.268;2023-06-14T05:52:59;7.75;;;3.80;;
49217;SDS011;35045;51.194;7.268;2023-06-14T05:55:25;7.75;;;3.67;;
49217;SDS011;35045;51.194;7.268;2023-06-14T05:57:51;8.75;;;3.65;;
49217;SDS011;35045;51.194;7.268;2023-06-14T06:00:18;7.20;;;3.92;;
49217;SDS011;35045;51.194;7.268;2023-06-14T06:02:45;6.25;;;3.40;;
49217;SDS011;35045;51.194;7.268;2023-06-14T06:05:13;9.60;;;3.50;;
49217;SDS011;35045;51.194;7.268;2023-06-14T06:07:41;7.85;;;3.33;;
49217;SDS011;35045;51.194;7.268;2023-06-14T06:10:09;9.13;;;2.97;;
49217;SDS011;35045;51.194;7.268;2023-06-14T06:12:36;6.60;;;3.42;;
49217;SDS011;35045;51.194;7.268;2023-06-14T06:15:03;5.70;;;3.10;;
49217;SDS011;35045;51.194;7.268;2023-06-14T06:17:30;6.15;;;3.13;;
49217;SDS011;35045;51.194;7.268;2023-06-14T06:20:04;6.95;;;3.20;;
49217;SDS011;35045;51.194;7.268;2023-06-14T06:22:36;7.28;;;3.13;;
49217;SDS011;35045;51.194;7.268;2023-06-14T06:25:02;6.85;;;2.88;;
49217;SDS011;35045;51.194;7.268;2023-06-14T06:27:29;6.53;;;3.03;;
49217;SDS011;35045;51.194;7.268;2023-06-14T06:29:55;7.18;;;3.03;;
49217;SDS011;35045;51.194;7.268;2023-06-14T06:32:21;8.70;;;3.33;;
49217;SDS011;35045;51.194;7.268;2023-06-14T06:34:48;6.85;;;3.15;;
49217;SDS011;35045;51.194;7.268;2023-06-14T06:37:14;6.07;;;3.00;;
49217;SDS011;35045;51.194;7.268;2023-06-14T06:39:40;5.93;;;2.80;;
49217;SDS011;35045;51.194;7.268;2023-06-14T06:42:07;5.70;;;2.92;;
49217;SDS011;35045;51.194;7.268;2023-06-14T06:44:33;6.90;;;2.83;;
49217;SDS011;35045;51.194;7.268;2023-06-14T06:46:59;5.22;;;2.20;;
49217;SDS011;35045;51.194;7.268;2023-06-14T06:49:25;4.93;;;2.25;;
49217;SDS011;35045;51.194;7.268;2023-06-14T06:52:04;6.50;;;2.45;;
49217;SDS011;35045;51.194;7.268;2023-06-14T06:54:32;4.85;;;2.00;;
49217;SDS011;35045;51.194;7.268;2023-06-14T06:56:59;4.22;;;1.80;;
49217;SDS011;35045;51.194;7.268;2023-06-14T06:59:27;6.25;;;2.30;;
49217;SDS011;35045;51.194;7.268;2023-06-14T07:01:53;5.05;;;2.25;;
49217;SDS011;35045;51.194;7.268;2023-06-14T07:04:19;5.13;;;2.10;;
49217;SDS011;35045;51.194;7.268;2023-06-14T07:06:46;4.50;;;1.98;;
49217;SDS011;35045;51.194;7.268;2023-06-14T07:09:13;4.43;;;2.15;;
49217;SDS011;35045;51.194;7.268;2023-06-14T07:11:40;5.03;;;1.88;;
49217;SDS011;35045;51.194;7.268;2023-06-14T07:14:06;4.68;;;1.90;;
49217;SDS011;35045;51.194;7.268;2023-06-14T07:16:33;4.45;;;1.75;;
49217;SDS011;35045;51.194;7.268;2023-06-14T07:18:59;4.07;;;1.85;;
49217;SDS011;35045;51.194;7.268;2023-06-14T07:21:27;4.55;;;1.77;;
49217;SDS011;35045;51.194;7.268;2023-06-14T07:23:54;5.72;;;2.08;;
49217;SDS011;35045;51.194;7.268;2023-06-14T07:26:20;4.15;;;1.70;;
49217;SDS011;35045;51.194;7.268;2023-06-14T07:28:47;4.53;;;1.70;;
49217;SDS011;35045;51.194;7.268;2023-06-14T07:31:15;5.47;;;1.77;;
49217;SDS011;35045;51.194;7.268;2023-06-14T07:33:42;5.07;;;1.98;;
49217;SDS011;35045;51.194;7.268;2023-06-14T07:36:08;5.20;;;1.67;;
49217;SDS011;35045;51.194;7.268;2023-06-14T07:38:34;4.97;;;1.70;;
49217;SDS011;35045;51.194;7.268;2023-06-14T07:41:02;5.57;;;2.05;;
49217;SDS011;35045;51.194;7.268;2023-06-14T07:43:29;6.68;;;2.05;;
49217;SDS011;35045;51.194;7.268;2023-06-14T07:45:55;4.95;;;1.83;;
49217;SDS011;35045;51.194;7.268;2023-06-14T07:48:27;4.95;;;1.80;;
49217;SDS011;35045;51.194;7.268;2023-06-14T07:50:54;5.20;;;1.80;;
49217;SDS011;35045;51.194;7.268;2023-06-14T07:53:20;5.47;;;1.90;;
49217;SDS011;35045;51.194;7.268;2023-06-14T07:55:47;3.67;;;1.67;;
49217;SDS011;35045;51.194;7.268;2023-06-14T07:58:17;4.65;;;1.80;;
49217;SDS011;35045;51.194;7.268;2023-06-14T08:00:43;6.30;;;1.80;;
49217;SDS011;35045;51.194;7.268;2023-06-14T08:03:09;4.55;;;1.60;;
49217;SDS011;35045;51.194;7.268;2023-06-14T08:05:36;4.32;;;1.70;;
49217;SDS011;35045;51.194;7.268;2023-06-14T08:08:02;7.35;;;2.15;;
49217;SDS011;35045;51.194;7.268;2023-06-14T08:10:28;4.53;;;1.83;;
49217;SDS011;35045;51.194;7.268;2023-06-14T08:12:55;5.78;;;1.77;;
49217;SDS011;35045;51.194;7.268;2023-06-14T08:15:21;4.90;;;1.77;;
49217;SDS011;35045;51.194;7.268;2023-06-14T08:17:47;4.15;;;1.73;;
49217;SDS011;35045;51.194;7.268;2023-06-14T08:20:13;5.88;;;1.67;;
49217;SDS011;35045;51.194;7.268;2023-06-14T08:22:42;4.88;;;1.83;;
49217;SDS011;35045;51.194;7.268;2023-06-14T08:25:09;4.95;;;1.90;;
49217;SDS011;35045;51.194;7.268;2023-06-14T08:27:37;5.15;;;2.00;;
49217;SDS011;35045;51.194;7.268;2023-06-14T08:30:04;5.07;;;2.17;;
49217;SDS011;35045;51.194;7.268;2023-06-14T08:32:30;5.70;;;2.22;;
49217;SDS011;35045;51.194;7.268;2023-06-14T08:34:57;6.85;;;2.05;;
49217;SDS011;35045;51.194;7.268;2023-06-14T08:37:29;5.53;;;1.85;;
49217;SDS011;35045;51.194;7.268;2023-06-14T08:39:55;7.97;;;2.30;;
49217;SDS011;35045;51.194;7.268;2023-06-14T08:42:22;3.90;;;1.50;;
49217;SDS011;35045;51.194;7.268;2023-06-14T08:44:56;4.05;;;1.65;;
49217;SDS011;35045;51.194;7.268;2023-06-14T08:47:22;4.63;;;1.60;;
49217;SDS011;35045;51.194;7.268;2023-06-14T08:49:52;6.57;;;2.17;;
49217;SDS011;35045;51.194;7.268;2023-06-14T08:52:21;4.13;;;1.77;;
49217;SDS011;35045;51.194;7.268;2023-06-14T08:54:48;7.78;;;1.98;;
49217;SDS011;35045;51.194;7.268;2023-06-14T08:57:15;4.63;;;1.75;;
49217;SDS011;35045;51.194;7.268;2023-06-14T08:59:45;5.30;;;2.20;;
49217;SDS011;35045;51.194;7.268;2023-06-14T09:02:15;5.43;;;2.00;;
49217;SDS011;35045;51.194;7.268;2023-06-14T09:04:45;5.88;;;2.30;;
49217;SDS011;35045;51.194;7.268;2023-06-14T09:07:12;5.85;;;2.33;;
49217;SDS011;35045;51.194;7.268;2023-06-14T09:09:39;6.10;;;2.08;;
49217;SDS011;35045;51.194;7.268;2023-06-14T09:12:10;10.27;;;2.38;;
49217;SDS011;35045;51.194;7.268;2023-06-14T09:14:38;7.05;;;2.42;;
49217;SDS011;35045;51.194;7.268;2023-06-14T09:17:06;5.75;;;1.92;;
49217;SDS011;35045;51.194;7.268;2023-06-14T09:19:33;5.20;;;2.15;;
49217;SDS011;35045;51.194;7.268;2023-06-14T09:22:03;4.97;;;1.70;;
49217;SDS011;35045;51.194;7.268;2023-06-14T09:24:29;5.10;;;1.67;;
49217;SDS011;35045;51.194;7.268;2023-06-14T09:26:56;4.70;;;2.15;;
49217;SDS011;35045;51.194;7.268;2023-06-14T09:29:23;6.03;;;1.75;;
49217;SDS011;35045;51.194;7.268;2023-06-14T09:31:50;8.18;;;2.00;;
49217;SDS011;35045;51.194;7.268;2023-06-14T09:34:16;5.05;;;2.00;;
49217;SDS011;35045;51.194;7.268;2023-06-14T09:36:45;5.45;;;1.90;;
49217;SDS011;35045;51.194;7.268;2023-06-14T09:39:11;6.03;;;1.60;;
49217;SDS011;35045;51.194;7.268;2023-06-14T09:41:43;6.28;;;1.80;;
49217;SDS011;35045;51.194;7.268;2023-06-14T09:44:10;4.88;;;1.70;;
49217;SDS011;35045;51.194;7.268;2023-06-14T09:46:40;5.90;;;1.92;;
49217;SDS011;35045;51.194;7.268;2023-06-14T09:49:06;4.68;;;1.83;;
49217;SDS011;35045;51.194;7.268;2023-06-14T09:51:34;5.70;;;1.90;;
49217;SDS011;35045;51.194;7.268;2023-06-14T09:54:02;6.97;;;2.10;;
49217;SDS011;35045;51.194;7.268;2023-06-14T09:59:06;4.78;;;1.88;;
49217;SDS011;35045;51.194;7.268;2023-06-14T10:01:36;4.15;;;1.63;;
49217;SDS011;35045;51.194;7.268;2023-06-14T10:04:07;4.95;;;1.55;;
49217;SDS011;35045;51.194;7.268;2023-06-14T10:06:36;5.03;;;1.88;;
49217;SDS011;35045;51.194;7.268;2023-06-14T10:09:05;4.40;;;2.00;;
49217;SDS011;35045;51.194;7.268;2023-06-14T10:11:34;6.13;;;2.00;;
49217;SDS011;35045;51.194;7.268;2023-06-14T10:14:04;5.57;;;2.00;;
49217;SDS011;35045;51.194;7.268;2023-06-14T10:16:32;5.68;;;1.85;;
49217;SDS011;35045;51.194;7.268;2023-06-14T10:19:10;4.85;;;2.00;;
49217;SDS011;35045;51.194;7.268;2023-06-14T10:21:51;3.95;;;1.85;;
49217;SDS011;35045;51.194;7.268;2023-06-14T10:24:33;5.25;;;1.83;;
49217;SDS011;35045;51.194;7.268;2023-06-14T10:27:05;5.30;;;1.90;;
49217;SDS011;35045;51.194;7.268;2023-06-14T10:32:21;9.43;;;1.90;;
49217;SDS011;35045;51.194;7.268;2023-06-14T10:34:55;5.93;;;1.73;;
49217;SDS011;35045;51.194;7.268;2023-06-14T10:37:23;5.13;;;1.52;;
49217;SDS011;35045;51.194;7.268;2023-06-14T10:39:50;3.72;;;1.40;;
49217;SDS011;35045;51.194;7.268;2023-06-14T10:42:17;5.40;;;1.58;;
49217;SDS011;35045;51.194;7.268;2023-06-14T10:44:44;4.88;;;1.70;;
49217;SDS011;35045;51.194;7.268;2023-06-14T10:49:50;3.90;;;1.48;;
49217;SDS011;35045;51.194;7.268;2023-06-14T10:52:22;5.05;;;1.38;;
49217;SDS011;35045;51.194;7.268;2023-06-14T10:55:09;4.45;;;1.50;;
49217;SDS011;35045;51.194;7.268;2023-06-14T10:57:45;4.50;;;1.38;;
49217;SDS011;35045;51.194;7.268;2023-06-14T11:00:21;6.05;;;1.70;;
49217;SDS011;35045;51.194;7.268;2023-06-14T11:11:37;3.05;;;1.20;;
49217;SDS011;35045;51.194;7.268;2023-06-14T11:14:05;5.90;;;1.67;;
49217;SDS011;35045;51.194;7.268;2023-06-14T11:16:32;4.45;;;1.50;;
49217;SDS011;35045;51.194;7.268;2023-06-14T11:19:00;4.60;;;1.60;;
49217;SDS011;35045;51.194;7.268;2023-06-14T11:21:28;4.65;;;1.50;;
49217;SDS011;35045;51.194;7.268;2023-06-14T11:23:57;4.55;;;1.40;;
49217;SDS011;35045;51.194;7.268;2023-06-14T11:28:56;4.50;;;1.35;;
49217;SDS011;35045;51.194;7.268;2023-06-14T11:31:24;5.57;;;1.80;;
49217;SDS011;35045;51.194;7.268;2023-06-14T11:33:50;3.15;;;1.23;;
49217;SDS011;35045;51.194;7.268;2023-06-14T11:36:19;5.10;;;1.30;;
49217;SDS011;35045;51.194;7.268;2023-06-14T11:38:45;3.40;;;1.20;;
49217;SDS011;35045;51.194;7.268;2023-06-14T11:41:11;5.22;;;1.48;;
49217;SDS011;35045;51.194;7.268;2023-06-14T11:43:39;4.10;;;1.40;;
49217;SDS011;35045;51.194;7.268;2023-06-14T11:46:11;3.55;;;1.08;;
49217;SDS011;35045;51.194;7.268;2023-06-14T11:48:40;4.15;;;1.27;;
49217;SDS011;35045;51.194;7.268;2023-06-14T11:51:07;3.55;;;1.30;;
49217;SDS011;35045;51.194;7.268;2023-06-14T11:53:34;4.95;;;1.40;;
49217;SDS011;35045;51.194;7.268;2023-06-14T11:56:00;3.45;;;1.23;;
49217;SDS011;35045;51.194;7.268;2023-06-14T11:58:28;3.97;;;1.10;;
49217;SDS011;35045;51.194;7.268;2023-06-14T12:00:55;4.00;;;1.10;;
49217;SDS011;35045;51.194;7.268;2023-06-14T12:03:24;4.85;;;1.15;;
49217;SDS011;35045;51.194;7.268;2023-06-14T12:06:02;3.63;;;1.30;;
49217;SDS011;35045;51.194;7.268;2023-06-14T12:08:36;4.38;;;1.30;;
49217;SDS011;35045;51.194;7.268;2023-06-14T12:11:07;4.50;;;1.38;;
49217;SDS011;35045;51.194;7.268;2023-06-14T12:13:40;4.50;;;1.40;;
49217;SDS011;35045;51.194;7.268;2023-06-14T12:16:10;4.60;;;1.23;;
49217;SDS011;35045;51.194;7.268;2023-06-14T12:18:38;3.60;;;1.25;;
49217;SDS011;35045;51.194;7.268;2023-06-14T12:21:05;5.25;;;1.35;;
49217;SDS011;35045;51.194;7.268;2023-06-14T12:23:43;3.08;;;1.10;;
49217;SDS011;35045;51.194;7.268;2023-06-14T12:26:14;3.28;;;1.35;;
49217;SDS011;35045;51.194;7.268;2023-06-14T12:28:44;3.53;;;1.40;;
49217;SDS011;35045;51.194;7.268;2023-06-14T12:31:11;5.68;;;1.60;;
49217;SDS011;35045;51.194;7.268;2023-06-14T12:33:41;6.55;;;1.35;;
49217;SDS011;35045;51.194;7.268;2023-06-14T12:36:08;3.47;;;1.00;;
49217;SDS011;35045;51.194;7.268;2023-06-14T12:38:36;3.15;;;1.20;;
49217;SDS011;35045;51.194;7.268;2023-06-14T12:41:03;5.32;;;1.30;;
49217;SDS011;35045;51.194;7.268;2023-06-14T12:43:29;5.65;;;1.45;;
49217;SDS011;35045;51.194;7.268;2023-06-14T12:45:56;3.13;;;1.20;;
49217;SDS011;35045;51.194;7.268;2023-06-14T12:48:22;3.95;;;1.10;;
49217;SDS011;35045;51.194;7.268;2023-06-14T12:50:48;4.55;;;1.45;;
49217;SDS011;35045;51.194;7.268;2023-06-14T12:53:14;6.68;;;1.38;;
49217;SDS011;35045;51.194;7.268;2023-06-14T12:55:40;4.45;;;1.40;;
49217;SDS011;35045;51.194;7.268;2023-06-14T12:58:07;4.82;;;1.48;;
49217;SDS011;35045;51.194;7.268;2023-06-14T13:00:33;5.03;;;1.42;;
49217;SDS011;35045;51.194;7.268;2023-06-14T13:03:00;4.88;;;1.67;;
49217;SDS011;35045;51.194;7.268;2023-06-14T13:05:27;4.43;;;1.63;;
49217;SDS011;35045;51.194;7.268;2023-06-14T13:07:54;4.35;;;1.40;;
49217;SDS011;35045;51.194;7.268;2023-06-14T13:10:20;3.90;;;1.48;;
49217;SDS011;35045;51.194;7.268;2023-06-14T13:12:46;3.88;;;1.40;;
49217;SDS011;35045;51.194;7.268;2023-06-14T13:15:12;3.55;;;1.45;;
49217;SDS011;35045;51.194;7.268;2023-06-14T13:17:38;4.22;;;1.33;;
49217;SDS011;35045;51.194;7.268;2023-06-14T13:20:06;5.35;;;1.70;;
49217;SDS011;35045;51.194;7.268;2023-06-14T13:22:34;4.07;;;1.50;;
49217;SDS011;35045;51.194;7.268;2023-06-14T13:25:00;6.45;;;1.52;;
49217;SDS011;35045;51.194;7.268;2023-06-14T13:27:27;3.45;;;1.40;;
49217;SDS011;35045;51.194;7.268;2023-06-14T13:29:54;3.97;;;1.40;;
49217;SDS011;35045;51.194;7.268;2023-06-14T13:32:20;4.00;;;1.45;;
49217;SDS011;35045;51.194;7.268;2023-06-14T13:34:47;3.17;;;1.40;;
49217;SDS011;35045;51.194;7.268;2023-06-14T13:37:14;4.28;;;1.73;;
49217;SDS011;35045;51.194;7.268;2023-06-14T13:39:40;3.90;;;1.67;;
49217;SDS011;35045;51.194;7.268;2023-06-14T13:42:07;6.95;;;1.63;;
49217;SDS011;35045;51.194;7.268;2023-06-14T13:44:33;4.38;;;1.48;;
49217;SDS011;35045;51.194;7.268;2023-06-14T13:46:59;3.70;;;1.60;;
49217;SDS011;35045;51.194;7.268;2023-06-14T13:49:26;3.38;;;1.30;;
49217;SDS011;35045;51.194;7.268;2023-06-14T13:51:52;3.60;;;1.63;;
49217;SDS011;35045;51.194;7.268;2023-06-14T13:54:19;4.15;;;1.50;;
49217;SDS011;35045;51.194;7.268;2023-06-14T13:56:47;4.97;;;1.50;;
49217;SDS011;35045;51.194;7.268;2023-06-14T13:59:13;3.70;;;1.70;;
49217;SDS011;35045;51.194;7.268;2023-06-14T14:01:40;2.97;;;1.20;;
49217;SDS011;35045;51.194;7.268;2023-06-14T14:04:06;5.80;;;1.70;;
49217;SDS011;35045;51.194;7.268;2023-06-14T14:06:32;4.38;;;1.42;;
49217;SDS011;35045;51.194;7.268;2023-06-14T14:08:58;4.78;;;1.60;;
49217;SDS011;35045;51.194;7.268;2023-06-14T14:11:25;3.85;;;1.50;;
49217;SDS011;35045;51.194;7.268;2023-06-14T14:13:51;5.07;;;1.52;;
49217;SDS011;35045;51.194;7.268;2023-06-14T14:16:17;4.97;;;1.50;;
49217;SDS011;35045;51.194;7.268;2023-06-14T14:18:45;4.38;;;1.55;;
49217;SDS011;35045;51.194;7.268;2023-06-14T14:21:12;4.55;;;1.27;;
49217;SDS011;35045;51.194;7.268;2023-06-14T14:23:39;5.60;;;1.60;;
49217;SDS011;35045;51.194;7.268;2023-06-14T14:26:06;4.20;;;1.50;;
49217;SDS011;35045;51.194;7.268;2023-06-14T14:28:32;4.05;;;1.40;;
49217;SDS011;35045;51.194;7.268;2023-06-14T14:30:59;4.13;;;1.55;;
49217;SDS011;35045;51.194;7.268;2023-06-14T14:33:25;3.88;;;1.40;;
49217;SDS011;35045;51.194;7.268;2023-06-14T14:35:51;3.22;;;1.27;;
49217;SDS011;35045;51.194;7.268;2023-06-14T14:38:18;3.08;;;1.23;;
49217;SDS011;35045;51.194;7.268;2023-06-14T14:40:44;3.55;;;1.10;;
49217;SDS011;35045;51.194;7.268;2023-06-14T14:43:10;4.30;;;1.50;;
49217;SDS011;35045;51.194;7.268;2023-06-14T14:45:36;4.25;;;1.50;;
49217;SDS011;35045;51.194;7.268;2023-06-14T14:48:03;2.97;;;1.27;;
49217;SDS011;35045;51.194;7.268;2023-06-14T14:50:29;3.95;;;1.30;;
49217;SDS011;35045;51.194;7.268;2023-06-14T14:52:55;3.05;;;1.20;;
49217;SDS011;35045;51.194;7.268;2023-06-14T14:55:22;3.10;;;1.40;;
49217;SDS011;35045;51.194;7.268;2023-06-14T14:57:48;3.33;;;1.20;;
49217;SDS011;35045;51.194;7.268;2023-06-14T15:00:14;4.63;;;1.50;;
49217;SDS011;35045;51.194;7.268;2023-06-14T15:02:41;2.70;;;1.17;;
49217;SDS011;35045;51.194;7.268;2023-06-14T15:05:08;4.28;;;1.27;;
49217;SDS011;35045;51.194;7.268;2023-06-14T15:07:34;3.58;;;1.30;;
49217;SDS011;35045;51.194;7.268;2023-06-14T15:10:00;4.50;;;1.70;;
49217;SDS011;35045;51.194;7.268;2023-06-14T15:12:27;3.97;;;1.38;;
49217;SDS011;35045;51.194;7.268;2023-06-14T15:14:54;6.15;;;1.33;;
49217;SDS011;35045;51.194;7.268;2023-06-14T15:17:20;3.83;;;1.42;;